sensor_id;sensor_type;location;lat;lon;timestamp;temperature;humidity
27306;DHT22;14792;50.886;6.468;2024-02-23T00:02:06;6.00;99.90
27306;DHT22;14792;50.886;6.468;2024-02-23T00:05:08;5.80;99.90
27306;DHT22;14792;50.886;6.468;2024-02-23T00:08:10;5.80;99.90
27306;DHT22;14792;50.886;6.468;2024-02-23T00:11:11;5.60;99.90
27306;DHT22;14792;50.886;6.468;2024-02-23T00:14:13;5.60;99.90
27306;DHT22;14792;50.886;6.468;2024-02-23T00:17:14;5.60;99.90
27306;DHT22;14792;50.886;6.468;2024-02-23T00:20:16;5.60;99.90
27306;DHT22;14792;50.886;6.468;2024-02-23T00:23:18;5.70;99.90
27306;DHT22;14792;50.886;6.468;2024-02-23T00:26:19;5.80;99.90
27306;DHT22;14792;50.886;6.468;2024-02-23T00:29:21;5.80;99.90
27306;DHT22;14792;50.886;6.468;2024-02-23T00:32:22;5.80;99.90
27306;DHT22;14792;50.886;6.468;2024-02-23T00:35:24;5.80;99.90
27306;DHT22;14792;50.886;6.468;2024-02-23T00:38:25;5.80;99.90
27306;DHT22;14792;50.886;6.468;2024-02-23T00:41:27;5.80;99.90
27306;DHT22;14792;50.886;6.468;2024-02-23T00:44:29;5.80;99.90
27306;DHT22;14792;50.886;6.468;2024-02-23T00:47:30;5.80;99.90
27306;DHT22;14792;50.886;6.468;2024-02-23T00:50:32;5.70;99.90
27306;DHT22;14792;50.886;6.468;2024-02-23T00:53:33;5.70;99.90
27306;DHT22;14792;50.886;6.468;2024-02-23T00:56:35;5.70;99.90
27306;DHT22;14792;50.886;6.468;2024-02-23T00:59:36;5.60;99.90
27306;DHT22;14792;50.886;6.468;2024-02-23T01:02:38;5.60;99.90
27306;DHT22;14792;50.886;6.468;2024-02-23T01:05:40;5.60;99.90
27306;DHT22;14792;50.886;6.468;2024-02-23T01:08:41;5.60;99.90
27306;DHT22;14792;50.886;6.468;2024-02-23T01:11:43;5.40;99.90
27306;DHT22;14792;50.886;6.468;2024-02-23T01:14:44;5.40;99.90
27306;DHT22;14792;50.886;6.468;2024-02-23T01:17:46;5.30;99.90
27306;DHT22;14792;50.886;6.468;2024-02-23T01:20:48;5.30;99.90
27306;DHT22;14792;50.886;6.468;2024-02-23T01:23:49;5.30;99.90
27306;DHT22;14792;50.886;6.468;2024-02-23T01:26:51;5.20;99.90
27306;DHT22;14792;50.886;6.468;2024-02-23T01:29:52;5.20;99.90
27306;DHT22;14792;50.886;6.468;2024-02-23T01:32:54;5.20;99.90
27306;DHT22;14792;50.886;6.468;2024-02-23T01:35:55;5.10;99.90
27306;DHT22;14792;50.886;6.468;2024-02-23T01:38:57;5.10;99.90
27306;DHT22;14792;50.886;6.468;2024-02-23T01:41:59;5.20;99.90
27306;DHT22;14792;50.886;6.468;2024-02-23T01:45:00;5.20;99.90
27306;DHT22;14792;50.886;6.468;2024-02-23T01:48:02;5.20;99.90
27306;DHT22;14792;50.886;6.468;2024-02-23T01:51:03;5.20;99.90
27306;DHT22;14792;50.886;6.468;2024-02-23T01:54:05;5.20;99.90
27306;DHT22;14792;50.886;6.468;2024-02-23T01:57:07;5.20;99.90
27306;DHT22;14792;50.886;6.468;2024-02-23T02:00:08;5.10;99.90
27306;DHT22;14792;50.886;6.468;2024-02-23T02:03:10;5.20;99.90
27306;DHT22;14792;50.886;6.468;2024-02-23T02:06:12;5.20;99.90
27306;DHT22;14792;50.886;6.468;2024-02-23T02:09:13;5.20;99.90
27306;DHT22;14792;50.886;6.468;2024-02-23T02:12:15;5.20;99.90
27306;DHT22;14792;50.886;6.468;2024-02-23T02:15:16;5.20;99.90
27306;DHT22;14792;50.886;6.468;2024-02-23T02:18:19;5.30;99.90
27306;DHT22;14792;50.886;6.468;2024-02-23T02:21:20;5.20;99.90
27306;DHT22;14792;50.886;6.468;2024-02-23T02:24:22;5.20;99.90
27306;DHT22;14792;50.886;6.468;2024-02-23T02:27:23;5.20;99.90
27306;DHT22;14792;50.886;6.468;2024-02-23T02:30:25;5.20;99.90
27306;DHT22;14792;50.886;6.468;2024-02-23T02:33:27;5.20;99.90
27306;DHT22;14792;50.886;6.468;2024-02-23T02:36:28;5.20;99.90
27306;DHT22;14792;50.886;6.468;2024-02-23T02:39:30;5.20;99.90
27306;DHT22;14792;50.886;6.468;2024-02-23T02:42:32;5.20;99.90
27306;DHT22;14792;50.886;6.468;2024-02-23T02:45:33;5.20;99.90
27306;DHT22;14792;50.886;6.468;2024-02-23T02:48:34;5.20;99.90
27306;DHT22;14792;50.886;6.468;2024-02-23T02:51:36;5.20;99.90
27306;DHT22;14792;50.886;6.468;2024-02-23T02:54:38;5.20;99.90
27306;DHT22;14792;50.886;6.468;2024-02-23T02:57:39;5.30;99.90
27306;DHT22;14792;50.886;6.468;2024-02-23T03:00:41;5.20;99.90
27306;DHT22;14792;50.886;6.468;2024-02-23T03:03:43;5.20;99.90
27306;DHT22;14792;50.886;6.468;2024-02-23T03:06:44;5.20;99.90
27306;DHT22;14792;50.886;6.468;2024-02-23T03:09:46;5.20;99.90
27306;DHT22;14792;50.886;6.468;2024-02-23T03:12:47;5.20;99.90
27306;DHT22;14792;50.886;6.468;2024-02-23T03:15:49;5.20;99.90
27306;DHT22;14792;50.886;6.468;2024-02-23T03:18:51;5.20;99.90
27306;DHT22;14792;50.886;6.468;2024-02-23T03:21:52;5.10;99.90
27306;DHT22;14792;50.886;6.468;2024-02-23T03:24:54;5.10;99.90
27306;DHT22;14792;50.886;6.468;2024-02-23T03:27:55;5.10;99.90
27306;DHT22;14792;50.886;6.468;2024-02-23T03:30:57;5.10;99.90
27306;DHT22;14792;50.886;6.468;2024-02-23T03:33:58;5.20;99.90
27306;DHT22;14792;50.886;6.468;2024-02-23T03:37:00;5.20;99.90
27306;DHT22;14792;50.886;6.468;2024-02-23T03:40:02;5.30;99.90
27306;DHT22;14792;50.886;6.468;2024-02-23T03:43:03;5.30;99.90
27306;DHT22;14792;50.886;6.468;2024-02-23T03:46:05;5.40;99.90
27306;DHT22;14792;50.886;6.468;2024-02-23T03:49:06;5.40;99.90
27306;DHT22;14792;50.886;6.468;2024-02-23T03:52:08;5.50;99.90
27306;DHT22;14792;50.886;6.468;2024-02-23T03:55:10;5.50;99.90
27306;DHT22;14792;50.886;6.468;2024-02-23T03:58:11;5.50;99.90
27306;DHT22;14792;50.886;6.468;2024-02-23T04:01:13;5.60;99.90
27306;DHT22;14792;50.886;6.468;2024-02-23T04:04:14;5.60;99.90
27306;DHT22;14792;50.886;6.468;2024-02-23T04:07:16;5.60;99.90
27306;DHT22;14792;50.886;6.468;2024-02-23T04:10:17;5.60;99.90
27306;DHT22;14792;50.886;6.468;2024-02-23T04:13:19;5.60;99.90
27306;DHT22;14792;50.886;6.468;2024-02-23T04:16:24;5.60;99.90
27306;DHT22;14792;50.886;6.468;2024-02-23T04:19:25;5.60;99.90
27306;DHT22;14792;50.886;6.468;2024-02-23T04:22:27;5.60;99.90
27306;DHT22;14792;50.886;6.468;2024-02-23T04:25:28;5.60;99.90
27306;DHT22;14792;50.886;6.468;2024-02-23T04:28:30;5.60;99.90
27306;DHT22;14792;50.886;6.468;2024-02-23T04:31:31;5.60;99.90
27306;DHT22;14792;50.886;6.468;2024-02-23T04:34:33;5.50;99.90
27306;DHT22;14792;50.886;6.468;2024-02-23T04:37:35;5.50;99.90
27306;DHT22;14792;50.886;6.468;2024-02-23T04:40:36;5.50;99.90
27306;DHT22;14792;50.886;6.468;2024-02-23T04:43:38;5.50;99.90
27306;DHT22;14792;50.886;6.468;2024-02-23T04:46:39;5.50;99.90
27306;DHT22;14792;50.886;6.468;2024-02-23T04:49:41;5.60;99.90
27306;DHT22;14792;50.886;6.468;2024-02-23T04:52:42;5.50;99.90
27306;DHT22;14792;50.886;6.468;2024-02-23T04:55:44;5.50;99.90
27306;DHT22;14792;50.886;6.468;2024-02-23T04:58:46;5.50;99.90
27306;DHT22;14792;50.886;6.468;2024-02-23T05:01:47;5.50;99.90
27306;DHT22;14792;50.886;6.468;2024-02-23T05:04:49;5.40;99.90
27306;DHT22;14792;50.886;6.468;2024-02-23T05:07:50;5.40;99.90
27306;DHT22;14792;50.886;6.468;2024-02-23T05:10:52;5.40;99.90
27306;DHT22;14792;50.886;6.468;2024-02-23T05:13:54;5.40;99.90
27306;DHT22;14792;50.886;6.468;2024-02-23T05:16:55;5.40;99.90
27306;DHT22;14792;50.886;6.468;2024-02-23T05:19:57;5.40;99.90
27306;DHT22;14792;50.886;6.468;2024-02-23T05:22:58;5.40;99.90
27306;DHT22;14792;50.886;6.468;2024-02-23T05:26:00;5.40;99.90
27306;DHT22;14792;50.886;6.468;2024-02-23T05:29:01;5.30;99.90
27306;DHT22;14792;50.886;6.468;2024-02-23T05:32:03;5.30;99.90
27306;DHT22;14792;50.886;6.468;2024-02-23T05:35:05;5.40;99.90
27306;DHT22;14792;50.886;6.468;2024-02-23T05:38:06;5.50;99.90
27306;DHT22;14792;50.886;6.468;2024-02-23T05:41:11;5.50;99.90
27306;DHT22;14792;50.886;6.468;2024-02-23T05:44:10;5.40;99.90
27306;DHT22;14792;50.886;6.468;2024-02-23T05:47:11;5.40;99.90
27306;DHT22;14792;50.886;6.468;2024-02-23T05:50:13;5.40;99.90
27306;DHT22;14792;50.886;6.468;2024-02-23T05:53:14;5.40;99.90
27306;DHT22;14792;50.886;6.468;2024-02-23T05:56:16;5.40;99.90
27306;DHT22;14792;50.886;6.468;2024-02-23T05:59:20;5.30;99.90
27306;DHT22;14792;50.886;6.468;2024-02-23T06:02:22;5.30;99.90
27306;DHT22;14792;50.886;6.468;2024-02-23T06:05:23;5.30;99.90
27306;DHT22;14792;50.886;6.468;2024-02-23T06:08:24;5.30;99.90
27306;DHT22;14792;50.886;6.468;2024-02-23T06:11:26;5.20;99.90
27306;DHT22;14792;50.886;6.468;2024-02-23T06:14:28;5.30;99.90
27306;DHT22;14792;50.886;6.468;2024-02-23T06:17:29;5.20;99.90
27306;DHT22;14792;50.886;6.468;2024-02-23T06:20:31;5.10;99.90
27306;DHT22;14792;50.886;6.468;2024-02-23T06:23:33;5.10;99.90
27306;DHT22;14792;50.886;6.468;2024-02-23T06:26:34;5.20;99.90
27306;DHT22;14792;50.886;6.468;2024-02-23T06:29:36;5.20;99.90
27306;DHT22;14792;50.886;6.468;2024-02-23T06:32:37;5.10;99.90
27306;DHT22;14792;50.886;6.468;2024-02-23T06:35:39;5.10;99.90
27306;DHT22;14792;50.886;6.468;2024-02-23T06:38:40;5.10;99.90
27306;DHT22;14792;50.886;6.468;2024-02-23T06:41:42;5.10;99.90
27306;DHT22;14792;50.886;6.468;2024-02-23T06:44:44;5.10;99.90
27306;DHT22;14792;50.886;6.468;2024-02-23T06:47:45;5.10;99.90
27306;DHT22;14792;50.886;6.468;2024-02-23T06:50:47;5.20;99.90
27306;DHT22;14792;50.886;6.468;2024-02-23T06:53:48;5.10;99.90
27306;DHT22;14792;50.886;6.468;2024-02-23T06:56:50;5.10;99.90
27306;DHT22;14792;50.886;6.468;2024-02-23T06:59:52;5.10;99.90
27306;DHT22;14792;50.886;6.468;2024-02-23T07:02:53;5.10;99.90
27306;DHT22;14792;50.886;6.468;2024-02-23T07:05:55;5.20;99.90
27306;DHT22;14792;50.886;6.468;2024-02-23T07:08:56;5.20;99.90
27306;DHT22;14792;50.886;6.468;2024-02-23T07:11:58;5.20;99.90
27306;DHT22;14792;50.886;6.468;2024-02-23T07:14:59;5.30;99.90
27306;DHT22;14792;50.886;6.468;2024-02-23T07:18:01;5.30;99.90
27306;DHT22;14792;50.886;6.468;2024-02-23T07:21:03;5.40;99.90
27306;DHT22;14792;50.886;6.468;2024-02-23T07:24:04;5.40;99.90
27306;DHT22;14792;50.886;6.468;2024-02-23T07:27:06;5.50;99.90
27306;DHT22;14792;50.886;6.468;2024-02-23T07:30:07;5.60;99.90
27306;DHT22;14792;50.886;6.468;2024-02-23T07:33:09;5.70;99.90
27306;DHT22;14792;50.886;6.468;2024-02-23T07:36:14;5.70;99.90
27306;DHT22;14792;50.886;6.468;2024-02-23T07:39:15;5.80;99.90
27306;DHT22;14792;50.886;6.468;2024-02-23T07:42:16;5.80;99.90
27306;DHT22;14792;50.886;6.468;2024-02-23T07:45:18;5.90;99.90
27306;DHT22;14792;50.886;6.468;2024-02-23T07:48:20;6.10;99.90
27306;DHT22;14792;50.886;6.468;2024-02-23T07:51:21;6.30;99.90
27306;DHT22;14792;50.886;6.468;2024-02-23T07:54:23;6.40;99.90
27306;DHT22;14792;50.886;6.468;2024-02-23T07:57:24;6.30;99.90
27306;DHT22;14792;50.886;6.468;2024-02-23T08:00:26;6.30;99.90
27306;DHT22;14792;50.886;6.468;2024-02-23T08:03:28;6.40;99.90
27306;DHT22;14792;50.886;6.468;2024-02-23T08:06:29;6.30;99.90
27306;DHT22;14792;50.886;6.468;2024-02-23T08:09:31;6.40;99.90
27306;DHT22;14792;50.886;6.468;2024-02-23T08:12:32;6.50;99.90
27306;DHT22;14792;50.886;6.468;2024-02-23T08:15:34;6.70;99.90
27306;DHT22;14792;50.886;6.468;2024-02-23T08:18:35;6.90;99.90
27306;DHT22;14792;50.886;6.468;2024-02-23T08:21:37;7.00;99.90
27306;DHT22;14792;50.886;6.468;2024-02-23T08:24:39;7.30;99.90
27306;DHT22;14792;50.886;6.468;2024-02-23T08:27:43;7.40;99.90
27306;DHT22;14792;50.886;6.468;2024-02-23T08:30:45;7.40;99.90
27306;DHT22;14792;50.886;6.468;2024-02-23T08:33:46;7.30;99.90
27306;DHT22;14792;50.886;6.468;2024-02-23T08:36:48;7.30;99.90
27306;DHT22;14792;50.886;6.468;2024-02-23T08:39:49;7.20;99.90
27306;DHT22;14792;50.886;6.468;2024-02-23T08:42:51;7.20;99.90
27306;DHT22;14792;50.886;6.468;2024-02-23T08:45:53;7.10;99.90
27306;DHT22;14792;50.886;6.468;2024-02-23T08:48:54;7.30;99.90
27306;DHT22;14792;50.886;6.468;2024-02-23T08:51:56;7.30;99.90
27306;DHT22;14792;50.886;6.468;2024-02-23T08:54:57;7.40;99.90
27306;DHT22;14792;50.886;6.468;2024-02-23T08:57:59;7.50;99.90
27306;DHT22;14792;50.886;6.468;2024-02-23T09:01:00;7.70;99.90
27306;DHT22;14792;50.886;6.468;2024-02-23T09:04:02;7.60;99.90
27306;DHT22;14792;50.886;6.468;2024-02-23T09:07:04;7.60;99.90
27306;DHT22;14792;50.886;6.468;2024-02-23T09:10:05;7.70;99.90
27306;DHT22;14792;50.886;6.468;2024-02-23T09:13:07;7.70;99.90
27306;DHT22;14792;50.886;6.468;2024-02-23T09:16:08;7.70;99.90
27306;DHT22;14792;50.886;6.468;2024-02-23T09:19:10;7.80;99.90
27306;DHT22;14792;50.886;6.468;2024-02-23T09:22:12;8.00;99.90
27306;DHT22;14792;50.886;6.468;2024-02-23T09:25:13;8.00;99.90
27306;DHT22;14792;50.886;6.468;2024-02-23T09:28:15;7.90;99.90
27306;DHT22;14792;50.886;6.468;2024-02-23T09:31:16;7.80;99.90
27306;DHT22;14792;50.886;6.468;2024-02-23T09:34:18;7.80;99.90
27306;DHT22;14792;50.886;6.468;2024-02-23T09:37:19;7.80;99.90
27306;DHT22;14792;50.886;6.468;2024-02-23T09:40:21;7.90;99.90
27306;DHT22;14792;50.886;6.468;2024-02-23T09:43:23;8.00;99.90
27306;DHT22;14792;50.886;6.468;2024-02-23T09:46:25;8.10;99.90
27306;DHT22;14792;50.886;6.468;2024-02-23T09:49:26;8.20;99.90
27306;DHT22;14792;50.886;6.468;2024-02-23T09:52:27;8.40;99.90
27306;DHT22;14792;50.886;6.468;2024-02-23T09:55:29;8.80;99.90
27306;DHT22;14792;50.886;6.468;2024-02-23T09:58:33;8.60;99.90
27306;DHT22;14792;50.886;6.468;2024-02-23T10:01:35;8.50;99.90
27306;DHT22;14792;50.886;6.468;2024-02-23T10:04:36;8.50;99.90
27306;DHT22;14792;50.886;6.468;2024-02-23T10:07:38;8.50;99.90
27306;DHT22;14792;50.886;6.468;2024-02-23T10:10:40;8.40;99.90
27306;DHT22;14792;50.886;6.468;2024-02-23T10:13:41;8.30;99.90
27306;DHT22;14792;50.886;6.468;2024-02-23T10:16:43;8.40;99.90
27306;DHT22;14792;50.886;6.468;2024-02-23T10:19:44;8.30;99.90
27306;DHT22;14792;50.886;6.468;2024-02-23T10:22:46;8.50;99.90
27306;DHT22;14792;50.886;6.468;2024-02-23T10:25:47;8.60;99.90
27306;DHT22;14792;50.886;6.468;2024-02-23T10:28:49;8.70;99.90
27306;DHT22;14792;50.886;6.468;2024-02-23T10:31:51;8.60;99.90
27306;DHT22;14792;50.886;6.468;2024-02-23T10:34:52;8.50;99.90
27306;DHT22;14792;50.886;6.468;2024-02-23T10:37:54;8.40;99.90
27306;DHT22;14792;50.886;6.468;2024-02-23T10:40:55;8.40;99.90
27306;DHT22;14792;50.886;6.468;2024-02-23T10:43:57;8.40;99.90
27306;DHT22;14792;50.886;6.468;2024-02-23T10:46:59;8.40;99.90
27306;DHT22;14792;50.886;6.468;2024-02-23T10:50:00;8.30;99.90
27306;DHT22;14792;50.886;6.468;2024-02-23T10:53:02;8.40;99.90
27306;DHT22;14792;50.886;6.468;2024-02-23T10:56:03;8.40;99.90
27306;DHT22;14792;50.886;6.468;2024-02-23T10:59:05;8.40;99.90
27306;DHT22;14792;50.886;6.468;2024-02-23T11:02:06;8.50;99.90
27306;DHT22;14792;50.886;6.468;2024-02-23T11:05:08;8.50;99.90
27306;DHT22;14792;50.886;6.468;2024-02-23T11:08:10;8.50;99.90
27306;DHT22;14792;50.886;6.468;2024-02-23T11:11:11;8.40;99.90
27306;DHT22;14792;50.886;6.468;2024-02-23T11:14:13;8.50;99.90
27306;DHT22;14792;50.886;6.468;2024-02-23T11:17:17;8.50;99.90
27306;DHT22;14792;50.886;6.468;2024-02-23T11:20:19;8.50;99.90
27306;DHT22;14792;50.886;6.468;2024-02-23T11:23:20;8.70;99.90
27306;DHT22;14792;50.886;6.468;2024-02-23T11:26:22;8.70;99.90
27306;DHT22;14792;50.886;6.468;2024-02-23T11:29:25;8.70;99.90
27306;DHT22;14792;50.886;6.468;2024-02-23T11:32:34;8.70;99.90
27306;DHT22;14792;50.886;6.468;2024-02-23T11:35:27;8.70;99.90
27306;DHT22;14792;50.886;6.468;2024-02-23T11:38:28;8.70;99.90
27306;DHT22;14792;50.886;6.468;2024-02-23T11:41:30;8.70;99.90
27306;DHT22;14792;50.886;6.468;2024-02-23T11:44:31;8.70;99.90
27306;DHT22;14792;50.886;6.468;2024-02-23T11:47:33;8.60;99.90
27306;DHT22;14792;50.886;6.468;2024-02-23T11:50:35;8.60;99.90
27306;DHT22;14792;50.886;6.468;2024-02-23T11:53:36;8.60;99.90
27306;DHT22;14792;50.886;6.468;2024-02-23T11:56:38;8.70;99.90
27306;DHT22;14792;50.886;6.468;2024-02-23T11:59:40;8.50;99.90
27306;DHT22;14792;50.886;6.468;2024-02-23T12:02:42;8.60;99.90
27306;DHT22;14792;50.886;6.468;2024-02-23T12:05:42;8.70;99.90
27306;DHT22;14792;50.886;6.468;2024-02-23T12:08:44;8.80;99.90
27306;DHT22;14792;50.886;6.468;2024-02-23T12:11:46;8.90;99.90
27306;DHT22;14792;50.886;6.468;2024-02-23T12:14:47;9.00;99.90
27306;DHT22;14792;50.886;6.468;2024-02-23T12:17:49;9.00;99.90
27306;DHT22;14792;50.886;6.468;2024-02-23T12:20:50;9.20;99.90
27306;DHT22;14792;50.886;6.468;2024-02-23T12:23:52;9.10;99.90
27306;DHT22;14792;50.886;6.468;2024-02-23T12:26:54;9.00;99.90
27306;DHT22;14792;50.886;6.468;2024-02-23T12:29:55;9.00;99.90
27306;DHT22;14792;50.886;6.468;2024-02-23T12:33:08;9.00;99.90
27306;DHT22;14792;50.886;6.468;2024-02-23T12:36:07;9.00;99.90
27306;DHT22;14792;50.886;6.468;2024-02-23T12:39:08;9.00;99.90
27306;DHT22;14792;50.886;6.468;2024-02-23T12:42:10;9.20;99.90
27306;DHT22;14792;50.886;6.468;2024-02-23T12:45:12;9.20;99.90
27306;DHT22;14792;50.886;6.468;2024-02-23T12:48:13;9.00;99.90
27306;DHT22;14792;50.886;6.468;2024-02-23T12:51:15;9.10;99.90
27306;DHT22;14792;50.886;6.468;2024-02-23T12:54:16;9.30;99.90
27306;DHT22;14792;50.886;6.468;2024-02-23T12:57:18;9.20;99.90
27306;DHT22;14792;50.886;6.468;2024-02-23T13:00:19;9.20;99.90
27306;DHT22;14792;50.886;6.468;2024-02-23T13:03:21;9.20;99.90
27306;DHT22;14792;50.886;6.468;2024-02-23T13:06:23;9.60;99.90
27306;DHT22;14792;50.886;6.468;2024-02-23T13:09:24;10.00;99.90
27306;DHT22;14792;50.886;6.468;2024-02-23T13:12:26;10.10;99.90
27306;DHT22;14792;50.886;6.468;2024-02-23T13:15:27;10.30;99.90
27306;DHT22;14792;50.886;6.468;2024-02-23T13:18:29;10.30;99.90
27306;DHT22;14792;50.886;6.468;2024-02-23T13:21:31;10.20;99.90
27306;DHT22;14792;50.886;6.468;2024-02-23T13:24:32;10.20;99.90
27306;DHT22;14792;50.886;6.468;2024-02-23T13:27:34;9.80;99.90
27306;DHT22;14792;50.886;6.468;2024-02-23T13:30:35;9.70;99.90
27306;DHT22;14792;50.886;6.468;2024-02-23T13:33:37;10.00;99.90
27306;DHT22;14792;50.886;6.468;2024-02-23T13:36:38;9.90;99.90
27306;DHT22;14792;50.886;6.468;2024-02-23T13:39:40;10.10;99.90
27306;DHT22;14792;50.886;6.468;2024-02-23T13:42:42;9.80;99.90
27306;DHT22;14792;50.886;6.468;2024-02-23T13:45:49;9.90;99.90
27306;DHT22;14792;50.886;6.468;2024-02-23T13:49:02;10.00;99.90
27306;DHT22;14792;50.886;6.468;2024-02-23T13:51:52;9.90;99.90
27306;DHT22;14792;50.886;6.468;2024-02-23T13:54:54;9.90;99.90
27306;DHT22;14792;50.886;6.468;2024-02-23T13:57:55;9.70;99.90
27306;DHT22;14792;50.886;6.468;2024-02-23T14:00:57;9.70;99.90
27306;DHT22;14792;50.886;6.468;2024-02-23T14:03:58;9.70;99.90
27306;DHT22;14792;50.886;6.468;2024-02-23T14:07:04;9.60;99.90
27306;DHT22;14792;50.886;6.468;2024-02-23T14:10:06;9.50;99.90
27306;DHT22;14792;50.886;6.468;2024-02-23T14:13:07;9.70;99.90
27306;DHT22;14792;50.886;6.468;2024-02-23T14:16:09;9.70;99.90
27306;DHT22;14792;50.886;6.468;2024-02-23T14:19:11;9.90;99.90
27306;DHT22;14792;50.886;6.468;2024-02-23T14:22:12;9.90;99.90
27306;DHT22;14792;50.886;6.468;2024-02-23T14:25:16;9.90;99.90
27306;DHT22;14792;50.886;6.468;2024-02-23T14:28:15;9.90;99.90
27306;DHT22;14792;50.886;6.468;2024-02-23T14:31:17;9.70;99.90
27306;DHT22;14792;50.886;6.468;2024-02-23T14:34:18;9.60;99.90
27306;DHT22;14792;50.886;6.468;2024-02-23T14:37:23;9.60;99.90
27306;DHT22;14792;50.886;6.468;2024-02-23T14:40:22;9.70;99.90
27306;DHT22;14792;50.886;6.468;2024-02-23T14:43:23;9.60;99.90
27306;DHT22;14792;50.886;6.468;2024-02-23T14:46:25;9.60;99.90
27306;DHT22;14792;50.886;6.468;2024-02-23T14:49:26;9.50;99.90
27306;DHT22;14792;50.886;6.468;2024-02-23T14:52:30;9.60;99.90
27306;DHT22;14792;50.886;6.468;2024-02-23T14:55:29;9.60;99.90
27306;DHT22;14792;50.886;6.468;2024-02-23T14:58:31;9.60;99.90
27306;DHT22;14792;50.886;6.468;2024-02-23T15:01:33;9.60;99.90
27306;DHT22;14792;50.886;6.468;2024-02-23T15:04:34;9.60;99.90
27306;DHT22;14792;50.886;6.468;2024-02-23T15:07:36;9.70;99.90
27306;DHT22;14792;50.886;6.468;2024-02-23T15:10:37;9.50;99.90
27306;DHT22;14792;50.886;6.468;2024-02-23T15:13:39;9.70;99.90
27306;DHT22;14792;50.886;6.468;2024-02-23T15:16:41;9.60;99.90
27306;DHT22;14792;50.886;6.468;2024-02-23T15:19:42;9.70;99.90
27306;DHT22;14792;50.886;6.468;2024-02-23T15:22:44;9.60;99.90
27306;DHT22;14792;50.886;6.468;2024-02-23T15:25:48;9.50;99.90
27306;DHT22;14792;50.886;6.468;2024-02-23T15:28:47;9.50;99.90
27306;DHT22;14792;50.886;6.468;2024-02-23T15:31:48;9.40;99.90
27306;DHT22;14792;50.886;6.468;2024-02-23T15:34:50;9.30;99.90
27306;DHT22;14792;50.886;6.468;2024-02-23T15:37:52;9.20;99.90
27306;DHT22;14792;50.886;6.468;2024-02-23T15:40:53;9.10;99.90
27306;DHT22;14792;50.886;6.468;2024-02-23T15:43:55;9.10;99.90
27306;DHT22;14792;50.886;6.468;2024-02-23T15:46:56;9.00;99.90
27306;DHT22;14792;50.886;6.468;2024-02-23T15:50:01;9.00;99.90
27306;DHT22;14792;50.886;6.468;2024-02-23T15:53:00;9.00;99.90
27306;DHT22;14792;50.886;6.468;2024-02-23T15:56:04;8.90;99.90
27306;DHT22;14792;50.886;6.468;2024-02-23T15:59:03;8.80;99.90
27306;DHT22;14792;50.886;6.468;2024-02-23T16:02:04;8.50;99.90
27306;DHT22;14792;50.886;6.468;2024-02-23T16:05:06;8.20;99.90
27306;DHT22;14792;50.886;6.468;2024-02-23T16:08:11;8.00;99.90
27306;DHT22;14792;50.886;6.468;2024-02-23T16:11:12;8.00;99.90
27306;DHT22;14792;50.886;6.468;2024-02-23T16:14:13;7.90;99.90
27306;DHT22;14792;50.886;6.468;2024-02-23T16:17:15;7.90;99.90
27306;DHT22;14792;50.886;6.468;2024-02-23T16:20:16;7.80;99.90
27306;DHT22;14792;50.886;6.468;2024-02-23T16:23:18;7.80;99.90
27306;DHT22;14792;50.886;6.468;2024-02-23T16:26:20;7.80;99.90
27306;DHT22;14792;50.886;6.468;2024-02-23T16:29:21;7.80;99.90
27306;DHT22;14792;50.886;6.468;2024-02-23T16:32:23;7.80;99.90
27306;DHT22;14792;50.886;6.468;2024-02-23T16:35:24;7.80;99.90
27306;DHT22;14792;50.886;6.468;2024-02-23T16:38:26;7.80;99.90
27306;DHT22;14792;50.886;6.468;2024-02-23T16:41:27;7.80;99.90
27306;DHT22;14792;50.886;6.468;2024-02-23T16:44:29;7.70;99.90
27306;DHT22;14792;50.886;6.468;2024-02-23T16:47:31;7.60;99.90
27306;DHT22;14792;50.886;6.468;2024-02-23T16:50:32;7.60;99.90
27306;DHT22;14792;50.886;6.468;2024-02-23T16:53:37;7.50;99.90
27306;DHT22;14792;50.886;6.468;2024-02-23T16:56:35;7.50;99.90
27306;DHT22;14792;50.886;6.468;2024-02-23T16:59:37;7.50;99.90
27306;DHT22;14792;50.886;6.468;2024-02-23T17:02:39;7.40;99.90
27306;DHT22;14792;50.886;6.468;2024-02-23T17:05:40;7.40;99.90
27306;DHT22;14792;50.886;6.468;2024-02-23T17:08:44;7.50;99.90
27306;DHT22;14792;50.886;6.468;2024-02-23T17:11:43;7.40;99.90
27306;DHT22;14792;50.886;6.468;2024-02-23T17:14:45;7.40;99.90
27306;DHT22;14792;50.886;6.468;2024-02-23T17:17:47;7.40;99.90
27306;DHT22;14792;50.886;6.468;2024-02-23T17:20:49;7.40;99.90
27306;DHT22;14792;50.886;6.468;2024-02-23T17:23:50;7.30;99.90
27306;DHT22;14792;50.886;6.468;2024-02-23T17:26:52;7.20;99.90
27306;DHT22;14792;50.886;6.468;2024-02-23T17:29:53;7.20;99.90
27306;DHT22;14792;50.886;6.468;2024-02-23T17:32:55;7.20;99.90
27306;DHT22;14792;50.886;6.468;2024-02-23T17:35:57;7.20;99.90
27306;DHT22;14792;50.886;6.468;2024-02-23T17:38:58;7.20;99.90
27306;DHT22;14792;50.886;6.468;2024-02-23T17:42:00;7.20;99.90
27306;DHT22;14792;50.886;6.468;2024-02-23T17:45:01;7.20;99.90
27306;DHT22;14792;50.886;6.468;2024-02-23T17:48:03;7.20;99.90
27306;DHT22;14792;50.886;6.468;2024-02-23T17:51:05;7.10;99.90
27306;DHT22;14792;50.886;6.468;2024-02-23T17:54:06;7.10;99.90
27306;DHT22;14792;50.886;6.468;2024-02-23T17:57:08;7.20;99.90
27306;DHT22;14792;50.886;6.468;2024-02-23T18:00:09;7.20;99.90
27306;DHT22;14792;50.886;6.468;2024-02-23T18:03:11;7.30;99.90
27306;DHT22;14792;50.886;6.468;2024-02-23T18:06:13;7.30;99.90
27306;DHT22;14792;50.886;6.468;2024-02-23T18:09:14;7.30;99.90
27306;DHT22;14792;50.886;6.468;2024-02-23T18:12:16;7.20;99.90
27306;DHT22;14792;50.886;6.468;2024-02-23T18:15:17;7.20;99.90
27306;DHT22;14792;50.886;6.468;2024-02-23T18:18:19;7.20;99.90
27306;DHT22;14792;50.886;6.468;2024-02-23T18:21:21;7.20;99.90
27306;DHT22;14792;50.886;6.468;2024-02-23T18:24:22;7.20;99.90
27306;DHT22;14792;50.886;6.468;2024-02-23T18:27:24;7.20;99.90
27306;DHT22;14792;50.886;6.468;2024-02-23T18:30:25;7.30;99.90
27306;DHT22;14792;50.886;6.468;2024-02-23T18:33:27;7.30;99.90
27306;DHT22;14792;50.886;6.468;2024-02-23T18:36:29;7.20;99.90
27306;DHT22;14792;50.886;6.468;2024-02-23T18:39:30;7.20;99.90
27306;DHT22;14792;50.886;6.468;2024-02-23T18:42:32;7.20;99.90
27306;DHT22;14792;50.886;6.468;2024-02-23T18:45:33;7.20;99.90
27306;DHT22;14792;50.886;6.468;2024-02-23T18:48:35;7.20;99.90
27306;DHT22;14792;50.886;6.468;2024-02-23T18:51:36;7.10;99.90
27306;DHT22;14792;50.886;6.468;2024-02-23T18:54:38;7.10;99.90
27306;DHT22;14792;50.886;6.468;2024-02-23T18:57:40;7.00;99.90
27306;DHT22;14792;50.886;6.468;2024-02-23T19:00:41;6.90;99.90
27306;DHT22;14792;50.886;6.468;2024-02-23T19:03:43;6.90;99.90
27306;DHT22;14792;50.886;6.468;2024-02-23T19:06:44;6.70;99.90
27306;DHT22;14792;50.886;6.468;2024-02-23T19:09:46;6.50;99.90
27306;DHT22;14792;50.886;6.468;2024-02-23T19:12:47;6.50;99.90
27306;DHT22;14792;50.886;6.468;2024-02-23T19:15:49;6.40;99.90
27306;DHT22;14792;50.886;6.468;2024-02-23T19:18:51;6.30;99.90
27306;DHT22;14792;50.886;6.468;2024-02-23T19:21:52;6.20;99.90
27306;DHT22;14792;50.886;6.468;2024-02-23T19:24:54;6.10;99.90